createdAt,value
2022-09-24T00:01:53.624Z,22.77
2022-09-24T00:04:32.060Z,22.47
2022-09-24T00:07:02.752Z,23.50
2022-09-24T00:09:38.877Z,22.03
2022-09-24T00:12:16.309Z,22.30
2022-09-24T00:14:50.749Z,21.20
2022-09-24T00:17:22.130Z,21.73
2022-09-24T00:19:52.430Z,21.73
2022-09-24T00:22:25.569Z,20.93
2022-09-24T00:25:12.062Z,20.37
2022-09-24T00:27:44.516Z,20.67
2022-09-24T00:30:15.316Z,19.60
2022-09-24T00:32:45.283Z,20.50
2022-09-24T00:35:15.643Z,19.67
2022-09-24T00:37:45.130Z,20.90
2022-09-24T00:40:15.843Z,21.67
2022-09-24T00:42:54.502Z,19.67
2022-09-24T00:45:22.979Z,18.87
2022-09-24T00:47:51.238Z,18.67
2022-09-24T00:50:20.838Z,18.20
2022-09-24T00:52:52.451Z,18.13
2022-09-24T00:55:25.008Z,18.00
2022-09-24T00:57:57.750Z,18.23
2022-09-24T01:00:26.112Z,18.67
2022-09-24T01:02:56.463Z,17.80
2022-09-24T01:05:27.858Z,19.13
2022-09-24T01:07:57.381Z,17.47
2022-09-24T01:10:48.208Z,19.13
2022-09-24T01:13:28.966Z,18.10
2022-09-24T01:16:00.464Z,19.03
2022-09-24T01:18:34.976Z,17.30
2022-09-24T01:21:29.528Z,18.23
2022-09-24T01:24:04.708Z,17.73
2022-09-24T01:26:57.918Z,18.93
2022-09-24T01:29:42.053Z,17.93
2022-09-24T01:32:21.166Z,17.03
2022-09-24T01:34:50.801Z,17.70
2022-09-24T01:37:20.760Z,17.43
2022-09-24T01:39:50.470Z,17.33
2022-09-24T01:42:32.863Z,18.17
2022-09-24T01:45:02.632Z,17.00
2022-09-24T01:47:35.322Z,16.90
2022-09-24T01:50:10.607Z,18.27
2022-09-24T01:52:43.755Z,19.47
2022-09-24T01:55:13.470Z,18.00
2022-09-24T01:57:43.524Z,17.10
2022-09-24T02:00:21.334Z,18.17
2022-09-24T02:02:51.120Z,17.63
2022-09-24T02:05:24.888Z,19.57
2022-09-24T02:07:58.287Z,19.20
2022-09-24T02:10:29.004Z,19.40
2022-09-24T02:12:58.939Z,20.73
2022-09-24T02:15:33.402Z,20.37
2022-09-24T02:18:05.775Z,21.27
2022-09-24T02:20:34.167Z,20.33
2022-09-24T02:23:02.599Z,19.33
2022-09-24T02:25:32.969Z,20.67
2022-09-24T02:28:05.559Z,20.93
2022-09-24T02:30:40.061Z,20.87
2022-09-24T02:33:29.398Z,19.03
2022-09-24T02:35:57.043Z,20.53
2022-09-24T02:38:25.555Z,19.23
2022-09-24T02:40:54.738Z,20.73
2022-09-24T02:43:26.175Z,20.63
2022-09-24T02:46:14.195Z,20.13
2022-09-24T02:48:44.913Z,18.70
2022-09-24T02:51:13.218Z,18.37
2022-09-24T02:53:41.560Z,19.23
2022-09-24T02:56:10.001Z,19.07
2022-09-24T02:58:40.856Z,19.63
2022-09-24T03:01:10.599Z,19.63
2022-09-24T03:03:40.041Z,19.03
2022-09-24T03:06:08.811Z,18.50
2022-09-24T03:08:37.127Z,19.93
2022-09-24T03:11:05.425Z,19.60
2022-09-24T03:13:36.815Z,19.60
2022-09-24T03:16:05.261Z,20.50
2022-09-24T03:18:36.933Z,20.37
2022-09-24T03:21:06.157Z,21.60
2022-09-24T03:23:34.460Z,22.97
2022-09-24T03:26:05.503Z,22.03
2022-09-24T03:28:33.779Z,22.87
2022-09-24T03:31:03.232Z,24.50
2022-09-24T03:33:32.704Z,24.57
2022-09-24T03:36:03.395Z,24.67
2022-09-24T03:38:33.846Z,22.87
2022-09-24T03:41:02.110Z,24.20
2022-09-24T03:43:30.343Z,22.80
2022-09-24T03:45:58.899Z,22.97
2022-09-24T03:48:30.039Z,23.17
2022-09-24T03:50:58.316Z,22.00
2022-09-24T03:53:28.079Z,22.50
2022-09-24T03:55:59.774Z,23.33
2022-09-24T03:58:28.139Z,22.23
2022-09-24T04:00:57.271Z,21.57
2022-09-24T04:03:26.321Z,21.97
2022-09-24T04:05:54.616Z,21.93
2022-09-24T04:08:23.621Z,22.57
2022-09-24T04:10:53.796Z,22.77
2022-09-24T04:13:25.113Z,21.73
2022-09-24T04:15:53.862Z,22.03
2022-09-24T04:18:22.416Z,20.90
2022-09-24T04:20:50.760Z,22.37
2022-09-24T04:23:18.899Z,22.60
2022-09-24T04:25:47.137Z,21.83
2022-09-24T04:28:19.449Z,21.53
2022-09-24T04:30:48.274Z,23.83
2022-09-24T04:33:16.612Z,22.67
2022-09-24T04:35:46.630Z,23.50
2022-09-24T04:38:14.988Z,23.03
2022-09-24T04:40:47.428Z,23.77
2022-09-24T04:43:21.060Z,24.07
2022-09-24T04:45:49.341Z,23.97
2022-09-24T04:48:17.591Z,24.87
2022-09-24T04:50:49.134Z,25.30
2022-09-24T04:53:21.436Z,26.97
2022-09-24T04:55:49.832Z,25.20
2022-09-24T04:58:19.585Z,25.57
2022-09-24T05:00:47.898Z,25.43
2022-09-24T05:03:16.910Z,25.10
2022-09-24T05:05:45.575Z,24.67
2022-09-24T05:08:17.228Z,25.40
2022-09-24T05:10:45.605Z,27.27
2022-09-24T05:13:14.408Z,26.40
2022-09-24T05:15:45.692Z,27.87
2022-09-24T05:18:16.112Z,23.07
2022-09-24T05:20:45.225Z,27.10
2022-09-24T05:23:13.937Z,25.60
2022-09-24T05:25:58.687Z,26.07
2022-09-24T05:28:37.788Z,24.77
2022-09-24T05:31:14.011Z,22.70
2022-09-24T05:33:42.395Z,18.13
2022-09-24T05:36:10.568Z,18.47
2022-09-24T05:38:41.595Z,16.60
2022-09-24T05:41:17.083Z,17.63
2022-09-24T05:43:45.362Z,15.93
2022-09-24T05:46:20.372Z,14.33
2022-09-24T05:48:49.723Z,9.73
2022-09-24T05:51:20.992Z,9.47
2022-09-24T05:53:50.429Z,7.23
2022-09-24T05:56:18.611Z,7.17
2022-09-24T05:58:49.491Z,4.97
2022-09-24T06:01:19.141Z,3.50
2022-09-24T06:03:47.921Z,3.53
2022-09-24T06:06:21.349Z,3.17
2022-09-24T06:08:51.660Z,3.07
2022-09-24T06:11:24.228Z,2.97
2022-09-24T06:14:03.284Z,2.97
2022-09-24T06:16:48.530Z,3.20
2022-09-24T06:19:16.935Z,3.27
2022-09-24T06:21:45.282Z,3.13
2022-09-24T06:24:13.683Z,2.93
2022-09-24T06:26:42.184Z,2.97
2022-09-24T06:29:10.884Z,2.83
2022-09-24T06:31:41.104Z,2.77
2022-09-24T06:34:09.774Z,2.43
2022-09-24T06:36:44.433Z,2.93
2022-09-24T06:39:13.042Z,2.70
2022-09-24T06:41:41.528Z,3.03
2022-09-24T06:44:10.021Z,2.37
2022-09-24T06:46:38.619Z,3.20
2022-09-24T06:49:11.698Z,2.60
2022-09-24T06:51:40.738Z,2.77
2022-09-24T06:54:09.323Z,2.97
2022-09-24T06:56:37.650Z,2.20
2022-09-24T06:59:06.794Z,3.03
2022-09-24T07:01:35.649Z,2.83
2022-09-24T07:04:04.430Z,2.70
2022-09-24T07:06:49.514Z,2.67
2022-09-24T07:09:17.819Z,2.57
2022-09-24T07:11:46.771Z,2.40
2022-09-24T07:14:15.653Z,2.30
2022-09-24T07:16:44.199Z,2.93
2022-09-24T07:19:14.105Z,3.40
2022-09-24T07:21:45.388Z,1.80
2022-09-24T07:24:14.418Z,2.33
2022-09-24T07:26:42.968Z,2.97
2022-09-24T07:29:11.604Z,2.57
2022-09-24T07:31:39.966Z,2.40
2022-09-24T07:34:09.285Z,1.97
2022-09-24T07:36:37.816Z,3.03
2022-09-24T07:39:07.835Z,2.50
2022-09-24T07:41:42.576Z,2.27
2022-09-24T07:44:11.060Z,2.80
2022-09-24T07:46:39.565Z,2.20
2022-09-24T07:49:08.079Z,2.13
2022-09-24T07:51:56.051Z,3.57
2022-09-24T07:54:26.473Z,2.23
2022-09-24T07:56:55.428Z,2.43
2022-09-24T07:59:25.060Z,1.70
2022-09-24T08:01:54.550Z,2.20
2022-09-24T08:04:22.961Z,2.10
2022-09-24T08:06:52.234Z,2.63
2022-09-24T08:09:24.997Z,2.77
2022-09-24T08:11:55.005Z,2.00
2022-09-24T08:14:23.676Z,1.87
2022-09-24T08:16:52.197Z,2.00
2022-09-24T08:19:20.665Z,2.60
2022-09-24T08:21:49.515Z,1.90
2022-09-24T08:24:19.026Z,2.30
2022-09-24T08:26:47.606Z,2.40
2022-09-24T08:29:19.339Z,2.20
2022-09-24T08:31:52.418Z,2.57
2022-09-24T08:34:23.943Z,1.60
2022-09-24T08:36:52.309Z,1.67
2022-09-24T08:39:25.342Z,1.87
2022-09-24T08:42:01.413Z,1.83
2022-09-24T08:44:50.486Z,1.73
2022-09-24T08:47:37.092Z,2.13
2022-09-24T08:50:10.748Z,2.87
2022-09-24T08:52:50.707Z,1.30
2022-09-24T08:55:24.575Z,2.43
2022-09-24T08:58:00.789Z,2.07
2022-09-24T09:00:32.649Z,3.07
2022-09-24T09:03:03.491Z,2.50
2022-09-24T09:05:49.390Z,1.60
2022-09-24T09:08:46.685Z,1.70
2022-09-24T09:11:10.681Z,1.50
2022-09-24T09:13:41.998Z,1.80
2022-09-24T09:16:20.312Z,1.27
2022-09-24T09:19:08.459Z,1.63
2022-09-24T09:21:41.816Z,1.73
2022-09-24T09:25:04.632Z,2.10
2022-09-24T09:27:10.772Z,2.03
2022-09-24T09:29:40.399Z,2.50
2022-09-24T09:32:19.108Z,1.83
2022-09-24T09:34:53.650Z,1.57
2022-09-24T09:37:33.411Z,1.60
2022-09-24T09:40:15.845Z,1.83
2022-09-24T09:42:49.254Z,2.40
2022-09-24T09:45:28.409Z,1.67
2022-09-24T09:48:23.705Z,1.70
2022-09-24T09:50:55.938Z,1.90
2022-09-24T09:53:38.388Z,1.57
2022-09-24T09:56:14.231Z,2.37
2022-09-24T09:58:58.068Z,2.00
2022-09-24T10:01:46.450Z,1.73
2022-09-24T10:04:40.737Z,1.53
2022-09-24T10:07:11.777Z,1.47
2022-09-24T10:09:44.695Z,2.80
2022-09-24T10:12:20.165Z,1.90
2022-09-24T10:15:01.906Z,1.40
2022-09-24T10:17:33.714Z,1.97
2022-09-24T10:20:12.776Z,2.03
2022-09-24T10:22:48.937Z,1.30
2022-09-24T10:25:34.363Z,2.20
2022-09-24T10:28:21.532Z,1.93
2022-09-24T10:31:02.675Z,1.60
2022-09-24T10:33:43.577Z,2.27
2022-09-24T10:43:29.499Z,1.70
2022-09-24T10:46:25.923Z,2.20
2022-09-24T10:52:30.348Z,1.83
2022-09-24T10:55:09.355Z,1.60
2022-09-24T10:57:46.460Z,1.60
2022-09-24T11:00:21.710Z,2.10
2022-09-24T11:03:24.588Z,1.73
2022-09-24T11:05:55.515Z,1.40
2022-09-24T11:08:37.226Z,2.00
2022-09-24T11:11:23.455Z,1.87
2022-09-24T11:13:58.789Z,2.00
2022-09-24T11:16:45.292Z,2.33
2022-09-24T11:19:21.252Z,1.40
2022-09-24T11:22:06.555Z,2.00
2022-09-24T11:24:51.562Z,1.90
2022-09-24T11:27:31.868Z,1.43
2022-09-24T11:30:12.525Z,1.63
2022-09-24T11:32:50.976Z,2.00
2022-09-24T11:35:38.972Z,2.07
2022-09-24T11:38:20.495Z,1.57
2022-09-24T11:41:09.477Z,1.50
2022-09-24T11:43:58.586Z,1.67
2022-09-24T11:46:50.615Z,1.70
2022-09-24T11:49:43.464Z,1.37
2022-09-24T11:52:20.409Z,1.97
2022-09-24T11:55:07.716Z,1.30
2022-09-24T11:57:49.918Z,1.40
2022-09-24T12:00:22.217Z,1.60
2022-09-24T12:02:56.291Z,1.40
2022-09-24T12:05:29.891Z,1.50
2022-09-24T12:08:02.288Z,1.90
2022-09-24T12:10:51.071Z,1.40
2022-09-24T12:13:28.703Z,1.27
2022-09-24T12:16:00.851Z,1.70
2022-09-24T12:18:34.396Z,2.10
2022-09-24T12:21:11.256Z,1.70
2022-09-24T12:23:52.119Z,1.73
2022-09-24T12:26:25.919Z,1.80
2022-09-24T12:29:21.795Z,1.27
2022-09-24T12:32:16.379Z,1.20
2022-09-24T12:35:00.521Z,1.80
2022-09-24T12:37:59.356Z,1.27
2022-09-24T12:40:49.045Z,2.00
2022-09-24T12:43:26.806Z,1.17
2022-09-24T12:46:00.806Z,1.83
2022-09-24T12:48:39.099Z,1.70
2022-09-24T12:51:32.456Z,1.47
2022-09-24T12:54:28.151Z,1.17
2022-09-24T12:57:30.062Z,1.03
2022-09-24T12:59:59.426Z,1.20
2022-09-24T13:02:33.421Z,1.57
2022-09-24T13:05:28.585Z,1.37
2022-09-24T13:08:01.589Z,1.47
2022-09-24T13:10:47.898Z,1.40
2022-09-24T13:13:33.532Z,1.63
2022-09-24T13:16:09.471Z,1.40
2022-09-24T13:18:54.959Z,1.37
2022-09-24T13:21:36.649Z,1.00
2022-09-24T13:24:23.298Z,1.73
2022-09-24T13:26:52.281Z,0.83
2022-09-24T13:29:24.736Z,1.43
2022-09-24T13:31:56.067Z,1.73
2022-09-24T13:34:38.949Z,1.63
2022-09-24T13:37:16.772Z,1.57
2022-09-24T13:40:03.355Z,1.40
2022-09-24T13:43:04.042Z,1.70
2022-09-24T13:45:32.407Z,1.33
2022-09-24T13:48:02.681Z,0.90
2022-09-24T13:50:35.978Z,1.37
2022-09-24T13:53:06.762Z,1.00
2022-09-24T13:55:36.665Z,1.20
2022-09-24T13:58:08.059Z,1.43
2022-09-24T14:00:39.260Z,0.97
2022-09-24T14:03:18.939Z,1.40
2022-09-24T14:05:48.816Z,1.17
2022-09-24T14:08:17.767Z,1.57
2022-09-24T14:10:49.179Z,1.10
2022-09-24T14:13:19.396Z,1.53
2022-09-24T14:15:58.232Z,1.30
2022-09-24T14:18:27.063Z,1.37
2022-09-24T14:21:00.902Z,1.67
2022-09-24T14:23:31.632Z,1.63
2022-09-24T14:26:00.389Z,1.00
2022-09-24T14:28:32.906Z,1.10
2022-09-24T14:31:02.540Z,0.90
2022-09-24T14:33:32.415Z,0.93
2022-09-24T14:36:02.544Z,0.80
2022-09-24T14:38:35.891Z,1.07
2022-09-24T14:41:09.072Z,1.10
2022-09-24T14:43:40.031Z,1.27
2022-09-24T14:46:10.061Z,0.87
2022-09-24T14:48:38.524Z,1.20
2022-09-24T14:54:21.102Z,1.03
2022-09-24T14:56:49.651Z,1.83
2022-09-24T14:59:27.741Z,1.47
2022-09-24T15:02:16.117Z,1.40
2022-09-24T15:04:46.975Z,1.20
2022-09-24T15:07:18.386Z,1.07
2022-09-24T15:09:51.521Z,1.30
2022-09-24T15:12:22.509Z,1.67
2022-09-24T15:14:57.812Z,1.33
2022-09-24T15:17:29.654Z,1.40
2022-09-24T15:19:58.293Z,1.53
2022-09-24T15:22:28.260Z,1.00
2022-09-24T15:25:01.661Z,1.53
2022-09-24T15:27:31.494Z,1.23
2022-09-24T15:30:00.806Z,1.00
2022-09-24T15:32:32.717Z,1.03
2022-09-24T15:35:02.161Z,1.60
2022-09-24T15:37:31.121Z,1.23
2022-09-24T15:40:07.051Z,1.20
2022-09-24T15:42:36.779Z,1.60
2022-09-24T15:45:08.670Z,1.10
2022-09-24T15:47:40.233Z,1.10
2022-09-24T15:50:09.729Z,0.73
2022-09-24T15:52:41.772Z,1.77
2022-09-24T15:55:15.175Z,1.10
2022-09-24T15:57:44.267Z,1.47
2022-09-24T16:00:52.130Z,0.83
2022-09-24T20:18:59.015Z,2.73
